Time;durP1;ratioP1;P1;durP2;ratioP2;P2;SDS_P1;SDS_P2;PMS_P1;PMS_P2;Temp;Humidity;BMP_temperature;BMP_pressure;BME280_temperature;BME280_humidity;BME280_pressure;Samples;Min_cycle;Max_cycle;Signal;HPM_P1;HPM_P2
2024/01/16 00:01:27;;;;;;;28.10;26.03;;;;;;;-4.09;100.00;100194.84;5031330;28;20460;-35
2024/01/16 00:03:55;;;;;;;28.97;26.97;;;;;;;-4.06;100.00;100201.63;5031867;28;20436;-35
2024/01/16 00:06:23;;;;;;;27.07;25.37;;;;;;;-4.04;100.00;100203.16;5031585;28;20471;-39
2024/01/16 00:08:50;;;;;;;28.50;26.53;;;;;;;-3.98;100.00;100204.47;5031099;28;20428;-36
2024/01/16 00:11:18;;;;;;;26.33;24.73;;;;;;;-3.95;100.00;100196.44;5030698;28;20827;-40
2024/01/16 00:13:46;;;;;;;29.17;27.37;;;;;;;-3.95;100.00;100194.66;5030862;28;20432;-37
2024/01/16 00:16:13;;;;;;;27.30;25.60;;;;;;;-3.93;100.00;100197.13;5030782;28;20509;-37
2024/01/16 00:18:42;;;;;;;26.53;25.03;;;;;;;-3.88;100.00;100196.78;5031178;28;20432;-39
2024/01/16 00:21:10;;;;;;;28.33;26.63;;;;;;;-3.87;100.00;100199.25;5029633;28;20460;-36
2024/01/16 00:23:38;;;;;;;27.07;25.13;;;;;;;-3.80;100.00;100207.44;5030777;28;20447;-38
2024/01/16 00:26:06;;;;;;;27.73;25.83;;;;;;;-3.78;100.00;100203.75;5030913;28;20864;-40
2024/01/16 00:28:33;;;;;;;27.80;25.90;;;;;;;-3.73;100.00;100206.03;5030863;28;20436;-37
2024/01/16 00:31:01;;;;;;;28.47;26.67;;;;;;;-3.72;100.00;100199.84;5029521;28;20486;-40
2024/01/16 00:33:29;;;;;;;28.77;27.10;;;;;;;-3.70;100.00;100201.38;5030458;28;20432;-36
2024/01/16 00:35:58;;;;;;;27.80;26.00;;;;;;;-3.69;100.00;100195.22;5030669;28;20456;-41
2024/01/16 00:38:25;;;;;;;27.57;25.97;;;;;;;-3.67;100.00;100190.72;5030014;28;20588;-35
2024/01/16 00:40:53;;;;;;;29.50;27.20;;;;;;;-3.65;100.00;100195.81;5030065;28;20424;-40
2024/01/16 00:43:21;;;;;;;30.50;28.60;;;;;;;-3.65;100.00;100195.81;5029934;28;20436;-40
2024/01/16 00:45:49;;;;;;;29.03;27.33;;;;;;;-3.63;100.00;100193.91;5029932;28;20819;-37
2024/01/16 00:48:17;;;;;;;30.37;28.13;;;;;;;-3.60;100.00;100191.91;5030111;28;20494;-40
2024/01/16 00:50:46;;;;;;;29.80;27.90;;;;;;;-3.59;100.00;100184.94;5029778;28;20472;-38
2024/01/16 00:53:15;;;;;;;29.97;27.80;;;;;;;-3.59;100.00;100177.09;5018681;28;20553;-38
2024/01/16 00:55:43;;;;;;;28.00;26.50;;;;;;;-3.59;100.00;100171.91;5030065;28;20452;-36
2024/01/16 00:58:11;;;;;;;29.00;27.30;;;;;;;-3.60;100.00;100171.06;5029716;28;20974;-39
2024/01/16 01:00:38;;;;;;;29.27;27.50;;;;;;;-3.60;100.00;100159.81;5030156;28;20483;-40
2024/01/16 01:03:06;;;;;;;28.83;27.00;;;;;;;-3.60;100.00;100152.81;5029968;28;20551;-38
2024/01/16 01:05:34;;;;;;;29.90;28.00;;;;;;;-3.61;100.00;100158.13;5021153;28;20442;-38
2024/01/16 01:08:01;;;;;;;30.60;28.60;;;;;;;-3.62;100.00;100143.47;5030482;28;20468;-40
2024/01/16 01:10:30;;;;;;;30.27;27.83;;;;;;;-3.64;100.00;100121.91;5029597;28;20839;-41
2024/01/16 01:12:58;;;;;;;29.63;27.17;;;;;;;-3.67;100.00;100116.94;5029111;28;20568;-38
2024/01/16 01:15:26;;;;;;;29.50;27.60;;;;;;;-3.71;100.00;100118.97;5030099;28;20428;-37
2024/01/16 01:17:54;;;;;;;28.73;26.53;;;;;;;-3.77;100.00;100149.88;5030133;28;20471;-40
2024/01/16 01:20:22;;;;;;;29.80;27.43;;;;;;;-3.86;100.00;100189.69;5030152;28;20436;-40
2024/01/16 01:22:49;;;;;;;28.03;26.40;;;;;;;-3.91;100.00;100197.81;5029150;28;20460;-41
2024/01/16 01:25:17;;;;;;;28.90;26.97;;;;;;;-3.94;100.00;100203.28;5030083;28;20495;-42
2024/01/16 01:27:47;;;;;;;28.83;26.97;;;;;;;-3.91;100.00;100203.03;5029870;28;20543;-40
2024/01/16 01:30:15;;;;;;;30.20;28.17;;;;;;;-3.86;100.00;100200.09;5029373;28;20866;-35
2024/01/16 01:32:43;;;;;;;29.30;27.50;;;;;;;-3.85;100.00;100199.16;5029333;28;20470;-35
2024/01/16 01:35:12;;;;;;;29.50;27.60;;;;;;;-3.82;100.00;100197.13;5029877;28;20432;-37
2024/01/16 01:37:40;;;;;;;29.13;27.43;;;;;;;-3.81;100.00;100197.94;5029447;28;21019;-36
2024/01/16 01:40:09;;;;;;;29.37;27.27;;;;;;;-3.80;100.00;100207.44;5029493;28;20460;-42
2024/01/16 01:42:37;;;;;;;28.20;26.60;;;;;;;-3.80;100.00;100213.47;5028819;28;20460;-38
2024/01/16 01:45:07;;;;;;;29.60;27.80;;;;;;;-3.85;100.00;100210.38;5029720;28;20440;-39
2024/01/16 01:47:35;;;;;;;29.23;27.33;;;;;;;-3.83;100.00;100202.47;5028827;28;20539;-38
2024/01/16 01:50:03;;;;;;;30.53;28.53;;;;;;;-3.87;100.00;100214.06;5029382;28;20494;-38
2024/01/16 01:52:31;;;;;;;30.10;27.87;;;;;;;-3.95;100.00;100217.25;5027855;28;21048;-35
2024/01/16 01:55:00;;;;;;;30.90;28.30;;;;;;;-4.04;100.00;100226.59;5029158;28;20792;-37
2024/01/16 01:57:27;;;;;;;31.03;29.03;;;;;;;-4.13;100.00;100226.47;5029007;28;20523;-41
2024/01/16 01:59:55;;;;;;;29.07;27.00;;;;;;;-4.21;100.00;100226.22;5028648;28;20464;-37
2024/01/16 02:02:25;;;;;;;29.83;27.83;;;;;;;-4.30;100.00;100230.31;5028337;28;20456;-37
2024/01/16 02:04:53;;;;;;;28.93;27.03;;;;;;;-4.39;100.00;100233.59;5028261;28;20943;-38
2024/01/16 02:07:21;;;;;;;29.40;27.53;;;;;;;-4.48;100.00;100226.50;5028331;28;20464;-43
2024/01/16 02:09:49;;;;;;;29.60;27.60;;;;;;;-4.59;100.00;100236.84;5028976;28;20502;-40
2024/01/16 02:12:17;;;;;;;29.40;27.60;;;;;;;-4.67;100.00;100244.41;5028393;28;20499;-39
2024/01/16 02:14:44;;;;;;;29.27;27.57;;;;;;;-4.77;100.00;100233.84;5028505;28;20523;-37
2024/01/16 02:17:12;;;;;;;30.40;28.30;;;;;;;-4.88;100.00;100233.78;5029511;28;20632;-40
2024/01/16 02:19:41;;;;;;;30.57;28.73;;;;;;;-4.97;100.00;100231.03;5020880;28;20502;-35
2024/01/16 02:22:14;;;;;;;28.70;27.03;;;;;;;-5.07;100.00;100244.69;5028458;28;20456;-37
2024/01/16 02:24:43;;;;;;;29.67;27.67;;;;;;;-5.17;100.00;100246.28;5028799;28;20443;-38
2024/01/16 02:27:11;;;;;;;29.33;27.50;;;;;;;-5.25;100.00;100255.53;5028053;28;20452;-37
2024/01/16 02:29:41;;;;;;;29.83;27.90;;;;;;;-5.31;100.00;100256.81;5028508;28;20432;-40
2024/01/16 02:32:12;;;;;;;28.17;26.57;;;;;;;-5.39;100.00;100256.53;5028345;28;20559;-36
2024/01/16 02:34:40;;;;;;;28.53;26.80;;;;;;;-5.44;100.00;100242.19;5020976;28;20504;-36
2024/01/16 02:37:08;;;;;;;30.33;28.00;;;;;;;-5.47;100.00;100250.22;5028533;28;20547;-40
2024/01/16 02:39:36;;;;;;;28.40;26.67;;;;;;;-5.46;100.00;100246.66;5025569;28;20433;-37
2024/01/16 02:42:06;;;;;;;29.47;27.67;;;;;;;-5.47;100.00;100243.25;5023630;28;20488;-40
2024/01/16 02:44:33;;;;;;;29.27;27.20;;;;;;;-5.47;100.00;100251.03;5028300;28;20436;-38
2024/01/16 02:47:01;;;;;;;28.87;27.10;;;;;;;-5.49;100.00;100241.69;5028161;28;20510;-36
2024/01/16 02:49:32;;;;;;;29.03;26.97;;;;;;;-5.51;100.00;100239.19;5028808;28;20440;-42
2024/01/16 02:51:59;;;;;;;29.50;27.60;;;;;;;-5.52;100.00;100240.13;5027938;28;20502;-36
2024/01/16 02:54:27;;;;;;;28.90;26.90;;;;;;;-5.53;100.00;100237.66;5028453;28;20432;-42
2024/01/16 02:56:55;;;;;;;31.13;28.70;;;;;;;-5.54;100.00;100247.22;5028297;28;20456;-40
2024/01/16 02:59:24;;;;;;;29.60;27.70;;;;;;;-5.55;100.00;100249.94;5028211;28;20485;-36
2024/01/16 03:01:52;;;;;;;30.63;28.50;;;;;;;-5.53;100.00;100248.88;5028187;28;20455;-43
2024/01/16 03:04:19;;;;;;;30.80;28.60;;;;;;;-5.52;100.00;100247.09;5028434;28;20475;-41
2024/01/16 03:06:47;;;;;;;31.90;29.50;;;;;;;-5.53;100.00;100264.47;5028062;28;20496;-40
2024/01/16 03:09:15;;;;;;;29.10;27.17;;;;;;;-5.52;100.00;100254.88;5027920;28;20519;-35
2024/01/16 03:11:43;;;;;;;30.07;28.10;;;;;;;-5.52;100.00;100255.72;5027607;28;20857;-41
2024/01/16 03:14:11;;;;;;;30.97;28.87;;;;;;;-5.54;100.00;100252.41;5028296;28;20435;-37
2024/01/16 03:16:40;;;;;;;30.53;28.13;;;;;;;-5.53;100.00;100245.44;5031334;28;21030;-35
2024/01/16 03:19:09;;;;;;;30.90;28.57;;;;;;;-5.53;100.00;100254.06;5031905;28;20439;-37
2024/01/16 03:21:37;;;;;;;31.90;29.43;;;;;;;-5.52;100.00;100258.31;5030965;28;20475;-38
2024/01/16 03:24:06;;;;;;;29.23;27.10;;;;;;;-5.51;100.00;100256.53;5032161;28;20432;-37
2024/01/16 03:26:34;;;;;;;30.37;28.33;;;;;;;-5.50;100.00;100253.03;5032362;28;20804;-38
2024/01/16 03:29:02;;;;;;;30.27;28.37;;;;;;;-5.50;100.00;100243.47;5032129;28;20435;-43
2024/01/16 03:31:29;;;;;;;31.43;29.23;;;;;;;-5.49;100.00;100249.47;5031553;28;20470;-43
2024/01/16 03:33:58;;;;;;;32.17;29.23;;;;;;;-5.47;100.00;100247.63;5031329;28;20468;-37
2024/01/16 03:36:26;;;;;;;30.40;28.57;;;;;;;-5.44;100.00;100252.59;5031521;28;20456;-42
2024/01/16 03:38:54;;;;;;;29.30;27.30;;;;;;;-5.39;100.00;100251.34;5032061;28;20463;-39
2024/01/16 03:41:21;;;;;;;30.60;28.43;;;;;;;-5.35;100.00;100251.97;5031038;28;20459;-37
2024/01/16 03:43:49;;;;;;;30.60;28.50;;;;;;;-5.31;100.00;100250.78;5031698;28;20427;-37
2024/01/16 03:46:17;;;;;;;30.43;28.43;;;;;;;-5.24;100.00;100249.41;5032243;28;20562;-38
2024/01/16 03:48:44;;;;;;;30.73;28.47;;;;;;;-5.19;100.00;100249.91;5031731;28;20436;-40
2024/01/16 03:51:15;;;;;;;29.77;27.90;;;;;;;-5.13;100.00;100245.13;5030859;28;21552;-38
2024/01/16 03:53:43;;;;;;;29.43;27.63;;;;;;;-5.07;100.00;100249.03;5023640;28;20534;-40
2024/01/16 03:56:11;;;;;;;31.70;28.93;;;;;;;-5.06;100.00;100251.56;5031510;28;20540;-40
2024/01/16 03:58:41;;;;;;;30.60;28.50;;;;;;;-5.04;100.00;100241.03;5031666;28;21020;-36
2024/01/16 04:01:08;;;;;;;29.90;27.83;;;;;;;-5.07;100.00;100252.47;5030623;28;20543;-35
2024/01/16 04:03:36;;;;;;;29.57;27.30;;;;;;;-5.12;100.00;100235.56;5031488;28;20432;-35
2024/01/16 04:06:04;;;;;;;31.03;28.83;;;;;;;-5.22;100.00;100229.34;5031323;28;20491;-38
2024/01/16 04:08:35;;;;;;;30.00;28.13;;;;;;;-5.30;100.00;100235.09;5030679;28;20971;-36
2024/01/16 04:11:02;;;;;;;28.43;26.57;;;;;;;-5.41;100.00;100242.81;5031391;28;20458;-42
2024/01/16 04:13:30;;;;;;;28.10;26.20;;;;;;;-5.50;100.00;100240.88;5031240;28;20471;-40
2024/01/16 04:15:58;;;;;;;28.60;26.30;;;;;;;-5.60;100.00;100251.06;5030303;28;20567;-36
2024/01/16 04:18:25;;;;;;;28.63;26.33;;;;;;;-5.71;100.00;100244.94;5031351;28;20814;-40
2024/01/16 04:20:53;;;;;;;28.33;26.13;;;;;;;-5.80;100.00;100245.59;5030154;28;20436;-40
2024/01/16 04:23:21;;;;;;;27.80;26.00;;;;;;;-5.88;100.00;100245.28;5030851;28;20464;-43
2024/01/16 04:25:50;;;;;;;27.57;25.97;;;;;;;-5.95;100.00;100244.91;5030724;28;20456;-37
2024/01/16 04:28:18;;;;;;;28.17;26.20;;;;;;;-6.01;100.00;100247.06;5031176;28;20472;-39
2024/01/16 04:30:46;;;;;;;28.73;26.90;;;;;;;-6.06;100.00;100260.34;5030947;28;20459;-37
2024/01/16 04:33:14;;;;;;;28.60;26.83;;;;;;;-6.03;100.00;100264.53;5031222;28;20507;-40
2024/01/16 04:35:42;;;;;;;28.47;26.70;;;;;;;-5.99;100.00;100252.97;5031576;28;20444;-35
2024/01/16 04:38:10;;;;;;;28.93;27.17;;;;;;;-5.89;100.00;100251.44;5031151;28;20523;-38
2024/01/16 04:40:38;;;;;;;30.33;28.23;;;;;;;-5.80;100.00;100255.97;5030809;28;20440;-38
2024/01/16 04:43:07;;;;;;;30.37;28.07;;;;;;;-5.67;100.00;100251.56;5030381;28;20867;-36
2024/01/16 04:45:34;;;;;;;30.93;28.83;;;;;;;-5.58;100.00;100247.53;5030752;28;20523;-39
2024/01/16 04:48:02;;;;;;;30.00;27.87;;;;;;;-5.50;100.00;100250.44;5031028;28;20483;-39
2024/01/16 04:50:32;;;;;;;29.70;27.63;;;;;;;-5.44;100.00;100247.41;5029822;28;21056;-36
2024/01/16 04:53:00;;;;;;;31.73;29.60;;;;;;;-5.39;100.00;100247.91;5029985;28;20476;-41
2024/01/16 04:55:28;;;;;;;29.13;27.03;;;;;;;-5.33;100.00;100240.50;5030384;28;20439;-40
2024/01/16 04:57:56;;;;;;;29.97;27.67;;;;;;;-5.23;100.00;100244.13;5030230;28;20460;-36
2024/01/16 05:00:25;;;;;;;37.70;34.67;;;;;;;-5.14;100.00;100242.63;5030736;28;20993;-41
2024/01/16 05:02:53;;;;;;;32.07;29.70;;;;;;;-5.04;100.00;100230.63;5030246;28;20456;-37
2024/01/16 05:05:21;;;;;;;31.90;29.50;;;;;;;-4.94;100.00;100236.00;5030165;28;20439;-41
2024/01/16 05:07:51;;;;;;;33.83;30.20;;;;;;;-4.82;100.00;100229.91;5022471;28;20429;-40
2024/01/16 05:10:18;;;;;;;36.00;32.23;;;;;;;-4.70;100.00;100218.63;5030136;28;20431;-37
2024/01/16 05:12:46;;;;;;;34.67;31.30;;;;;;;-4.60;100.00;100217.81;5020849;28;20464;-39
2024/01/16 05:15:14;;;;;;;38.23;34.67;;;;;;;-4.50;100.00;100205.78;5029601;28;20460;-42
2024/01/16 05:17:43;;;;;;;35.03;31.93;;;;;;;-4.39;100.00;100204.97;5029692;28;20870;-40
2024/01/16 05:20:12;;;;;;;37.87;34.37;;;;;;;-4.32;100.00;100200.97;5030141;28;20536;-36
2024/01/16 05:22:40;;;;;;;38.27;34.37;;;;;;;-4.24;100.00;100203.03;5028263;28;20460;-35
2024/01/16 05:25:08;;;;;;;35.23;32.10;;;;;;;-4.19;100.00;100193.91;5029917;28;20432;-37
2024/01/16 05:27:36;;;;;;;37.27;33.40;;;;;;;-4.14;100.00;100191.78;5021752;28;21172;-38
2024/01/16 05:30:04;;;;;;;36.13;32.77;;;;;;;-4.06;100.00;100192.03;5029882;28;20463;-38
2024/01/16 05:32:32;;;;;;;38.80;35.00;;;;;;;-3.98;100.00;100176.66;5027990;28;20862;-37
2024/01/16 05:35:01;;;;;;;38.27;35.07;;;;;;;-3.87;100.00;100175.81;5029402;28;20472;-36
2024/01/16 05:37:29;;;;;;;37.03;33.80;;;;;;;-3.78;100.00;100180.31;5029458;28;20452;-36
2024/01/16 05:39:57;;;;;;;37.07;33.83;;;;;;;-3.68;100.00;100191.69;5028482;28;20945;-37
2024/01/16 05:42:25;;;;;;;36.13;33.00;;;;;;;-3.60;100.00;100189.31;5028197;28;20550;-37
2024/01/16 05:44:53;;;;;;;39.80;35.97;;;;;;;-3.51;100.00;100187.75;5029009;28;20803;-41
2024/01/16 05:47:24;;;;;;;40.30;36.10;;;;;;;-3.45;100.00;100188.09;5029421;28;20539;-42
2024/01/16 05:49:52;;;;;;;40.50;35.30;;;;;;;-3.38;100.00;100186.69;5029507;28;20820;-38
2024/01/16 05:52:21;;;;;;;36.27;33.20;;;;;;;-3.30;100.00;100190.44;5028286;28;20627;-40
2024/01/16 05:54:48;;;;;;;40.10;36.53;;;;;;;-3.26;100.00;100189.25;5029213;28;20507;-37
2024/01/16 05:57:16;;;;;;;40.47;36.33;;;;;;;-3.21;100.00;100187.09;5028922;28;20488;-40
2024/01/16 05:59:45;;;;;;;38.23;34.63;;;;;;;-3.16;100.00;100184.94;5028689;28;20444;-36
2024/01/16 06:02:12;;;;;;;40.70;36.87;;;;;;;-3.09;100.00;100189.56;5028414;28;20911;-37
2024/01/16 06:04:40;;;;;;;39.60;35.80;;;;;;;-3.02;100.00;100189.91;5028692;28;20986;-37
2024/01/16 06:07:08;;;;;;;41.63;37.60;;;;;;;-2.97;100.00;100190.34;5028432;28;20460;-42
2024/01/16 06:09:40;;;;;;;36.70;33.23;;;;;;;-2.93;100.00;100184.75;5021083;28;20433;-44
2024/01/16 06:12:08;;;;;;;38.87;35.10;;;;;;;-2.90;100.00;100184.50;5028374;28;20464;-39
2024/01/16 06:14:36;;;;;;;40.60;36.53;;;;;;;-2.84;100.00;100183.19;5028879;28;20583;-38
2024/01/16 06:17:05;;;;;;;39.13;35.30;;;;;;;-2.76;100.00;100183.38;5028912;28;20456;-42
2024/01/16 06:19:33;;;;;;;38.77;35.07;;;;;;;-2.69;100.00;100194.16;5029273;28;20835;-38
2024/01/16 06:22:01;;;;;;;37.53;34.23;;;;;;;-2.64;100.00;100186.78;5028282;28;20824;-40
2024/01/16 06:24:29;;;;;;;36.80;33.67;;;;;;;-2.64;100.00;100187.59;5028792;28;20420;-41
2024/01/16 06:26:58;;;;;;;38.40;34.90;;;;;;;-2.61;100.00;100191.75;5029174;28;20510;-39
2024/01/16 06:29:26;;;;;;;39.17;35.50;;;;;;;-2.54;100.00;100193.72;5029020;28;20467;-39
2024/01/16 06:32:02;;;;;;;39.47;35.57;;;;;;;-2.50;100.00;100189.06;5021605;28;20468;-42
2024/01/16 06:34:30;;;;;;;37.70;34.20;;;;;;;-2.45;100.00;100192.16;5028660;28;20472;-43
2024/01/16 06:36:57;;;;;;;36.53;33.23;;;;;;;-2.41;100.00;100199.59;5028435;28;20536;-35
2024/01/16 06:39:25;;;;;;;39.77;35.43;;;;;;;-2.37;100.00;100198.38;5028284;28;21011;-41
2024/01/16 06:41:53;;;;;;;40.90;36.90;;;;;;;-2.32;100.00;100193.59;5028002;28;20551;-37
2024/01/16 06:44:22;;;;;;;40.73;36.63;;;;;;;-2.27;100.00;100195.84;5028630;28;21342;-36
2024/01/16 06:46:50;;;;;;;37.70;34.00;;;;;;;-2.27;100.00;100201.88;5027963;28;20494;-39
2024/01/16 06:49:17;;;;;;;38.47;34.97;;;;;;;-2.24;100.00;100198.19;5028409;28;20442;-42
2024/01/16 06:51:45;;;;;;;37.80;34.27;;;;;;;-2.24;100.00;100206.03;5026871;28;21062;-37
2024/01/16 06:54:13;;;;;;;35.83;32.93;;;;;;;-2.23;100.00;100205.06;5027758;28;20475;-37
2024/01/16 06:56:41;;;;;;;38.80;35.10;;;;;;;-2.20;100.00;100204.78;5027724;28;21010;-35
2024/01/16 06:59:09;;;;;;;36.77;33.27;;;;;;;-2.20;100.00;100204.78;5028081;28;20432;-40
2024/01/16 07:01:40;;;;;;;36.80;33.40;;;;;;;-2.19;100.00;100200.41;5027516;28;20466;-37
2024/01/16 07:04:07;;;;;;;38.13;34.93;;;;;;;-2.15;100.00;100197.41;5028174;28;20467;-40
2024/01/16 07:06:35;;;;;;;36.93;33.67;;;;;;;-2.14;100.00;100199.06;5027857;28;20515;-37
2024/01/16 07:09:05;;;;;;;38.97;34.93;;;;;;;-2.13;100.00;100197.28;5028441;28;20683;-41
2024/01/16 07:11:32;;;;;;;41.27;35.23;;;;;;;-2.12;100.00;100199.75;5027094;28;20863;-37
2024/01/16 07:14:00;;;;;;;37.20;33.70;;;;;;;-2.12;100.00;100204.97;5027835;28;20574;-39
2024/01/16 07:16:28;;;;;;;37.03;33.53;;;;;;;-2.12;100.00;100204.97;5028348;28;20539;-37
2024/01/16 07:18:58;;;;;;;38.40;34.73;;;;;;;-2.11;100.00;100211.03;5020320;28;20493;-37
2024/01/16 07:21:26;;;;;;;37.97;34.40;;;;;;;-2.08;100.00;100205.53;5026756;28;20472;-37
2024/01/16 07:23:53;;;;;;;36.10;32.90;;;;;;;-2.09;100.00;100211.75;5027661;28;20440;-40
2024/01/16 07:26:23;;;;;;;37.20;33.70;;;;;;;-2.07;100.00;100215.06;5028040;28;20940;-37
2024/01/16 07:28:51;;;;;;;35.73;32.37;;;;;;;-2.04;100.00;100220.03;5027989;28;20508;-39
2024/01/16 07:31:18;;;;;;;39.53;35.63;;;;;;;-2.01;100.00;100220.59;5027423;28;20559;-40
2024/01/16 07:33:46;;;;;;;37.23;34.17;;;;;;;-1.98;100.00;100222.94;5027072;28;20979;-37
2024/01/16 07:36:15;;;;;;;35.70;32.60;;;;;;;-1.95;100.00;100220.09;5027646;28;20514;-37
2024/01/16 07:38:43;;;;;;;36.90;33.43;;;;;;;-1.89;100.00;100232.63;5027920;28;21135;-37
2024/01/16 07:41:11;;;;;;;38.13;34.37;;;;;;;-1.85;100.00;100225.38;5027384;28;20563;-42
2024/01/16 07:43:39;;;;;;;38.83;34.70;;;;;;;-1.82;100.00;100233.75;5027779;28;20432;-36
2024/01/16 07:46:07;;;;;;;34.73;31.70;;;;;;;-1.78;100.00;100236.94;5028229;28;20459;-40
2024/01/16 07:48:35;;;;;;;40.07;36.20;;;;;;;-1.77;100.00;100236.81;5028060;28;20490;-37
2024/01/16 07:51:02;;;;;;;36.27;33.07;;;;;;;-1.74;100.00;100233.94;5026715;28;20519;-37
2024/01/16 07:53:31;;;;;;;38.93;35.27;;;;;;;-1.69;100.00;100244.81;5027395;28;20449;-41
2024/01/16 07:55:59;;;;;;;38.33;34.50;;;;;;;-1.64;100.00;100226.13;5027539;28;20479;-39
2024/01/16 07:58:27;;;;;;;38.83;34.93;;;;;;;-1.61;100.00;100231.09;5027914;28;20436;-40
2024/01/16 08:00:55;;;;;;;37.67;34.20;;;;;;;-1.55;100.00;100227.16;5026638;28;20437;-36
2024/01/16 08:03:22;;;;;;;38.80;35.37;;;;;;;-1.53;100.00;100227.84;5030586;28;20527;-39
2024/01/16 08:05:50;;;;;;;37.53;34.17;;;;;;;-1.55;100.00;100232.38;5031067;28;21177;-36
2024/01/16 08:08:18;;;;;;;38.67;34.70;;;;;;;-1.53;100.00;100233.91;5031150;28;20486;-37
2024/01/16 08:10:47;;;;;;;38.83;35.53;;;;;;;-1.48;100.00;100233.47;5030502;28;20973;-40
2024/01/16 08:13:15;;;;;;;38.97;35.23;;;;;;;-1.46;100.00;100240.22;5019479;28;20518;-39
2024/01/16 08:15:43;;;;;;;37.43;34.30;;;;;;;-1.42;100.00;100243.41;5030346;28;20471;-37
2024/01/16 08:18:10;;;;;;;37.10;34.00;;;;;;;-1.40;100.00;100244.94;5031245;28;20523;-36
2024/01/16 08:20:38;;;;;;;37.37;34.07;;;;;;;-1.30;100.00;100243.19;5030339;28;20432;-42
2024/01/16 08:23:06;;;;;;;35.40;32.30;;;;;;;-1.23;100.00;100249.56;5029704;28;20467;-36
2024/01/16 08:25:34;;;;;;;37.97;34.67;;;;;;;-1.15;100.00;100248.88;5029842;28;20487;-36
2024/01/16 08:28:04;;;;;;;39.33;35.37;;;;;;;-1.06;100.00;100245.44;5030008;28;20443;-37
2024/01/16 08:30:32;;;;;;;45.70;40.87;;;;;;;-0.95;100.00;100249.72;5030174;28;20953;-36
2024/01/16 08:32:59;;;;;;;42.57;38.37;;;;;;;-0.90;100.00;100239.72;5029800;28;20456;-38
2024/01/16 08:35:27;;;;;;;36.77;33.67;;;;;;;-0.81;100.00;100246.75;5029602;28;20833;-36
2024/01/16 08:37:55;;;;;;;33.63;30.90;;;;;;;-0.83;100.00;100246.88;5030175;28;20454;-37
2024/01/16 08:40:23;;;;;;;35.10;32.10;;;;;;;-0.83;100.00;100246.88;5030053;28;20440;-38
2024/01/16 08:42:54;;;;;;;34.20;31.47;;;;;;;-0.79;100.00;100244.81;5029044;28;20460;-39
2024/01/16 08:45:26;;;;;;;33.20;30.50;;;;;;;-0.74;100.00;100248.66;5030083;28;20689;-36
2024/01/16 08:47:54;;;;;;;35.27;31.93;;;;;;;-0.69;100.00;100249.06;5030188;28;20807;-38
2024/01/16 08:50:22;;;;;;;34.30;31.40;;;;;;;-0.64;100.00;100246.06;5030014;28;20924;-37
2024/01/16 08:52:50;;;;;;;34.20;31.07;;;;;;;-0.57;100.00;100252.41;5028920;28;20452;-38
2024/01/16 08:55:18;;;;;;;33.83;30.80;;;;;;;-0.52;100.00;100252.00;5029503;28;20478;-36
2024/01/16 08:57:46;;;;;;;33.00;29.90;;;;;;;-0.47;100.00;100249.78;5029853;28;20559;-38
2024/01/16 09:00:15;;;;;;;33.43;30.60;;;;;;;-0.43;100.00;100254.63;5029724;28;20540;-38
2024/01/16 09:02:44;;;;;;;34.50;31.60;;;;;;;-0.39;100.00;100265.66;5028732;28;20488;-42
2024/01/16 09:05:13;;;;;;;34.20;31.00;;;;;;;-0.37;100.00;100269.78;5029334;28;20930;-37
2024/01/16 09:07:41;;;;;;;32.87;29.97;;;;;;;-0.28;100.00;100268.97;5029429;28;20463;-36
2024/01/16 09:10:09;;;;;;;34.17;31.47;;;;;;;-0.26;100.00;100263.56;5029482;28;20870;-38
2024/01/16 09:12:37;;;;;;;34.40;31.83;;;;;;;-0.12;100.00;100256.09;5028657;28;20502;-36
2024/01/16 09:15:06;;;;;;;34.67;31.73;;;;;;;0.00;100.00;100257.59;5029324;28;20516;-36
2024/01/16 09:17:33;;;;;;;32.83;30.20;;;;;;;0.13;100.00;100264.34;5029321;28;20880;-37
2024/01/16 09:20:03;;;;;;;33.83;30.73;;;;;;;0.19;100.00;100264.59;5020920;28;20432;-37
2024/01/16 09:22:31;;;;;;;33.40;30.40;;;;;;;0.28;100.00;100269.00;5028669;28;20554;-37
2024/01/16 09:24:58;;;;;;;33.07;30.37;;;;;;;0.22;100.00;100272.19;5028933;28;20431;-36
2024/01/16 09:27:26;;;;;;;32.73;30.17;;;;;;;0.12;100.00;100268.75;5029528;28;20451;-38
2024/01/16 09:29:54;;;;;;;31.77;29.33;;;;;;;0.11;100.00;100268.91;5029045;28;20473;-37
2024/01/16 09:32:21;;;;;;;33.70;30.50;;;;;;;0.23;100.00;100267.78;5028484;28;20855;-37
2024/01/16 09:34:49;;;;;;;32.30;29.50;;;;;;;0.39;100.00;100266.19;5029106;28;20515;-37
2024/01/16 09:37:18;;;;;;;32.07;29.47;;;;;;;0.42;100.00;100270.31;5028847;28;20475;-37
2024/01/16 09:39:46;;;;;;;31.37;28.97;;;;;;;0.41;100.00;100266.06;5029368;28;20532;-37
2024/01/16 09:42:14;;;;;;;34.63;31.63;;;;;;;0.54;100.00;100272.63;5027922;28;20483;-36
2024/01/16 09:44:42;;;;;;;33.37;30.40;;;;;;;0.73;100.00;100274.34;5028396;28;20987;-40
2024/01/16 09:47:12;;;;;;;31.13;29.03;;;;;;;0.88;100.00;100277.31;5028790;28;20514;-36
2024/01/16 09:49:40;;;;;;;33.97;30.60;;;;;;;0.93;100.00;100272.44;5029037;28;20469;-36
2024/01/16 09:52:08;;;;;;;33.60;30.90;;;;;;;0.89;100.00;100276.34;5028397;28;20801;-37
2024/01/16 09:54:37;;;;;;;32.50;30.13;;;;;;;1.00;100.00;100278.78;5028548;28;20435;-37
2024/01/16 09:57:08;;;;;;;33.03;30.53;;;;;;;1.13;100.00;100265.31;5028042;28;20565;-36
2024/01/16 09:59:39;;;;;;;33.77;30.83;;;;;;;1.26;100.00;100271.84;5028414;28;20432;-37
2024/01/16 10:02:11;;;;;;;35.03;32.20;;;;;;;1.48;100.00;100278.47;5020251;28;20506;-36
2024/01/16 10:04:39;;;;;;;35.23;32.20;;;;;;;1.49;100.00;100275.69;5028552;28;20439;-36
2024/01/16 10:07:08;;;;;;;34.30;31.80;;;;;;;1.41;100.00;100274.78;5020725;28;20947;-37
2024/01/16 10:09:39;;;;;;;35.53;32.70;;;;;;;1.46;100.00;100270.75;5028401;28;20428;-35
2024/01/16 10:12:07;;;;;;;34.80;32.20;;;;;;;1.61;100.00;100271.06;5027748;28;20983;-39
2024/01/16 10:14:36;;;;;;;34.63;32.07;;;;;;;1.66;100.00;100272.25;5028325;28;20444;-36
2024/01/16 10:17:05;;;;;;;34.40;31.40;;;;;;;1.78;100.00;100270.22;5028186;28;21018;-36
2024/01/16 10:19:34;;;;;;;35.40;32.30;;;;;;;1.84;100.00;100274.03;5028415;28;20432;-39
2024/01/16 10:22:21;;;;;;;33.93;31.40;;;;;;;1.88;100.00;100272.75;5027432;28;20464;-37
2024/01/16 10:25:05;;;;;;;33.07;30.40;;;;;;;1.84;100.00;100282.75;5027184;28;20475;-39
2024/01/16 10:27:33;;;;;;;35.30;32.40;;;;;;;1.93;100.00;100273.13;5028197;28;20447;-39
2024/01/16 10:30:02;;;;;;;36.73;33.77;;;;;;;2.06;100.00;100286.72;5027804;28;20464;-37
2024/01/16 10:32:31;;;;;;;35.87;33.00;;;;;;;2.19;100.00;100287.94;5027137;28;20506;-37
2024/01/16 10:35:08;;;;;;;35.57;32.53;;;;;;;2.43;100.00;100281.19;5027404;28;20448;-37
2024/01/16 10:37:43;;;;;;;34.33;31.73;;;;;;;2.53;100.00;100295.91;5027815;28;20541;-36
2024/01/16 10:40:16;;;;;;;37.97;34.80;;;;;;;2.62;100.00;100291.50;5027223;28;20436;-39
2024/01/16 10:42:44;;;;;;;38.13;35.23;;;;;;;2.72;100.00;100298.28;5027308;28;20487;-36
2024/01/16 10:45:18;;;;;;;36.00;32.73;;;;;;;2.82;100.00;100307.88;5027667;28;20693;-36
2024/01/16 10:47:47;;;;;;;33.50;31.10;;;;;;;2.93;100.00;100297.09;5027865;28;20494;-41
2024/01/16 10:50:15;;;;;;;33.17;30.77;;;;;;;2.83;100.00;100297.22;5027960;28;20440;-37
2024/01/16 10:52:48;;;;;;;33.00;30.40;;;;;;;2.65;100.00;100289.38;5026230;28;20460;-35
2024/01/16 10:55:22;;;;;;;33.20;30.70;;;;;;;2.69;100.00;100282.81;5027721;28;20444;-36
2024/01/16 10:57:50;;;;;;;32.57;30.00;;;;;;;2.79;100.00;100285.34;5028085;28;21171;-37
2024/01/16 11:00:20;;;;;;;32.57;29.83;;;;;;;2.87;100.00;100288.00;5027756;28;21124;-38
2024/01/16 11:02:59;;;;;;;35.33;32.60;;;;;;;2.86;100.00;100281.09;5026636;28;20585;-38
2024/01/16 11:05:30;;;;;;;33.77;31.50;;;;;;;2.99;100.00;100291.16;5027221;28;20498;-38
2024/01/16 11:08:00;;;;;;;33.80;31.50;;;;;;;2.98;100.00;100289.53;5027343;28;20428;-38